KTVC

UTC

Cherry Capital Airport

Traverse City, Michigan, United States

METAR - Current

KTVC 011103Z 18004KT 10SM TS SCT060CB BKN120 18/16 A3026 RMK AO2 LTG DSNT N AND NW TSB1057 OCNL LTGICCG N-NW TS N-NW MOV E T01830156

Observed

Oct 01 11:03 UTC

Flight Rules

VFR

Wind

180° at 4 KTS

Visibility

10 SM

Conditions

  • Thunderstorm

Clouds

  • Scattered at 6,000 ft AGL
  • Broken at 12,000 ft AGL

Ceiling

Broken at 12,000 ft AGL

Temperature

18°C=64°F

Dew Point

16°C=61°F

Humidity

88%

Altimeter

30.26 Hg

Pressure

1025.0 hPa

METAR - Previous

KTVC 011053Z AUTO 18004KT 10SM SCT060 BKN120 18/16 A3026 RMK AO2 LTG DSNT NW SLP246 T01780156

Observed

Oct 01 10:53 UTC

Flight Rules

VFR

Wind

180° at 4 KTS

Visibility

10 SM

Clouds

  • Scattered at 6,000 ft AGL
  • Broken at 12,000 ft AGL

Ceiling

Broken at 12,000 ft AGL

Temperature

18°C=64°F

Dew Point

16°C=61°F

Humidity

88%

Altimeter

30.26 Hg

Pressure

1025.0 hPa